Time;durP1;ratioP1;P1;durP2;ratioP2;P2;SDS_P1;SDS_P2;PMS_P1;PMS_P2;Temp;Humidity;BMP_temperature;BMP_pressure;BME280_temperature;BME280_humidity;BME280_pressure;Samples;Min_cycle;Max_cycle;Signal;HPM_P1;HPM_P2
2023/07/10 00:02:07;;;;;;;3.28;1.20;;;;;;;15.02;100.00;101338.59;5032843;28;20148;-56
2023/07/10 00:04:32;;;;;;;3.35;1.10;;;;;;;14.94;100.00;101338.78;5034247;28;20064;-55
2023/07/10 00:06:58;;;;;;;4.00;0.63;;;;;;;14.86;100.00;101347.78;5038988;28;20448;-52
2023/07/10 00:09:23;;;;;;;4.30;0.32;;;;;;;14.86;100.00;101355.78;5041873;28;20037;-51
2023/07/10 00:11:50;;;;;;;8.23;1.25;;;;;;;14.88;100.00;101358.28;5039098;28;20055;-55
2023/07/10 00:14:21;;;;;;;7.35;1.08;;;;;;;14.79;100.00;101349.59;5030454;28;20041;-51
2023/07/10 00:16:49;;;;;;;2.20;0.80;;;;;;;14.76;100.00;101350.00;5040057;28;20059;-54
2023/07/10 00:19:15;;;;;;;4.72;1.02;;;;;;;14.79;100.00;101355.78;5037462;28;20652;-48
2023/07/10 00:21:40;;;;;;;5.40;1.58;;;;;;;14.79;100.00;101360.28;5028456;28;20041;-50
2023/07/10 00:24:07;;;;;;;4.80;0.77;;;;;;;14.79;100.00;101353.09;5040510;28;20024;-50
2023/07/10 00:26:32;;;;;;;10.52;1.10;;;;;;;14.75;100.00;101351.03;5036151;28;20040;-55
2023/07/10 00:29:01;;;;;;;4.57;0.68;;;;;;;14.66;100.00;101350.34;5034195;28;20029;-50
2023/07/10 00:31:26;;;;;;;7.00;0.75;;;;;;;14.58;100.00;101356.66;5033027;28;20021;-56
2023/07/10 00:33:52;;;;;;;4.10;0.85;;;;;;;14.49;100.00;101349.81;5042576;28;20036;-53
2023/07/10 00:36:30;;;;;;;3.45;1.48;;;;;;;14.48;100.00;101368.69;5036922;28;20029;-55
2023/07/10 00:38:56;;;;;;;4.65;0.28;;;;;;;14.45;100.00;101363.75;5035726;28;20575;-46
2023/07/10 00:41:25;;;;;;;2.08;0.38;;;;;;;14.39;100.00;101370.69;5028876;28;20116;-55
2023/07/10 00:44:00;;;;;;;2.20;0.55;;;;;;;14.30;100.00;101369.16;5033821;28;20469;-55
2023/07/10 00:46:34;;;;;;;4.38;0.32;;;;;;;14.29;100.00;101380.88;5033992;28;20052;-58
2023/07/10 00:49:16;;;;;;;3.45;0.63;;;;;;;14.28;100.00;101376.56;5032270;28;20064;-53
2023/07/10 00:51:50;;;;;;;10.15;0.85;;;;;;;14.23;100.00;101382.47;5031147;28;20041;-58
2023/07/10 00:54:31;;;;;;;8.85;0.63;;;;;;;14.19;100.00;101373.19;5042048;28;20048;-56
2023/07/10 00:56:57;;;;;;;4.28;0.57;;;;;;;14.13;100.00;101372.13;5033400;28;20064;-55
2023/07/10 00:59:26;;;;;;;2.75;0.35;;;;;;;14.11;100.00;101376.00;5033930;28;20128;-51
2023/07/10 01:02:12;;;;;;;3.67;0.40;;;;;;;14.07;100.00;101377.38;5032850;28;20038;-54
2023/07/10 01:04:41;;;;;;;3.80;1.23;;;;;;;14.02;100.00;101380.66;5035578;28;20079;-55
2023/07/10 01:07:12;;;;;;;10.80;1.00;;;;;;;13.99;100.00;101380.19;5040303;28;20041;-55
2023/07/10 01:09:43;;;;;;;4.25;0.98;;;;;;;13.94;100.00;101386.13;5039237;28;20037;-57
2023/07/10 01:12:08;;;;;;;3.45;0.70;;;;;;;13.92;100.00;101391.63;5036704;28;20069;-53
2023/07/10 01:14:34;;;;;;;6.55;2.00;;;;;;;13.94;100.00;101396.78;5031197;28;20177;-53
2023/07/10 01:17:05;;;;;;;1.65;0.55;;;;;;;13.92;100.00;101393.47;5039573;28;20040;-56
2023/07/10 01:19:31;;;;;;;3.30;0.70;;;;;;;13.93;100.00;101387.94;5038830;28;20560;-57
2023/07/10 01:21:56;;;;;;;3.60;0.98;;;;;;;13.88;100.00;101390.34;5051260;28;20041;-58
2023/07/10 01:24:21;;;;;;;5.63;0.95;;;;;;;13.80;100.00;101397.66;5032324;28;20048;-58
2023/07/10 01:26:47;;;;;;;5.05;0.77;;;;;;;13.70;100.00;101393.44;5035945;28;20040;-59
2023/07/10 01:29:22;;;;;;;4.68;0.75;;;;;;;13.58;100.00;101388.81;5040300;28;20087;-60
2023/07/10 01:31:49;;;;;;;10.93;0.47;;;;;;;13.53;100.00;101403.53;5037719;28;20043;-58
2023/07/10 01:34:16;;;;;;;4.90;0.30;;;;;;;13.49;100.00;101404.91;5036260;28;20553;-56
2023/07/10 01:36:43;;;;;;;6.03;0.73;;;;;;;13.50;100.00;101406.59;5037451;28;20117;-55
2023/07/10 01:39:14;;;;;;;3.80;1.23;;;;;;;13.48;100.00;101416.59;5028889;28;20029;-55
2023/07/10 01:41:44;;;;;;;3.85;0.57;;;;;;;13.53;100.00;101422.19;5039825;28;20029;-61
2023/07/10 01:44:26;;;;;;;16.35;1.20;;;;;;;13.63;100.00;101426.38;5036920;28;20405;-61
2023/07/10 01:46:52;;;;;;;4.07;0.38;;;;;;;13.64;100.00;101422.72;5034247;28;20036;-55
2023/07/10 01:49:21;;;;;;;6.82;0.55;;;;;;;13.64;100.00;101430.72;5039038;28;20037;-56
2023/07/10 01:51:47;;;;;;;9.52;1.13;;;;;;;13.67;100.00;101430.31;5028757;28;20418;-51
2023/07/10 01:54:16;;;;;;;3.90;0.50;;;;;;;13.62;100.00;101425.56;5031349;28;20104;-57
2023/07/10 01:56:42;;;;;;;5.35;1.05;;;;;;;13.61;100.00;101425.75;5029360;28;20037;-52
2023/07/10 01:59:08;;;;;;;5.80;2.13;;;;;;;13.60;100.00;101413.44;5029284;28;20048;-53
2023/07/10 02:01:34;;;;;;;3.78;0.50;;;;;;;13.58;100.00;101424.28;5033835;28;20041;-59
2023/07/10 02:04:00;;;;;;;3.55;0.55;;;;;;;13.52;100.00;101417.03;5035004;28;20076;-61
2023/07/10 02:06:26;;;;;;;3.65;0.77;;;;;;;13.39;100.00;101414.22;5034607;28;20044;-59
2023/07/10 02:08:52;;;;;;;5.63;1.50;;;;;;;13.26;100.00;101412.19;5036568;28;20044;-56
2023/07/10 02:11:17;;;;;;;5.68;1.02;;;;;;;13.20;100.00;101412.94;5032096;28;20385;-59
2023/07/10 02:13:43;;;;;;;10.10;0.75;;;;;;;13.17;100.00;101419.47;5034606;28;20170;-56
2023/07/10 02:16:11;;;;;;;3.60;0.30;;;;;;;13.24;100.00;101423.03;5038198;28;20067;-60
2023/07/10 02:18:36;;;;;;;4.63;1.02;;;;;;;13.23;100.00;101412.56;5038879;28;20033;-59
2023/07/10 02:21:02;;;;;;;7.65;0.70;;;;;;;13.29;100.00;101428.66;5032636;28;20033;-58
2023/07/10 02:23:28;;;;;;;7.35;1.67;;;;;;;13.36;100.00;101433.25;5027547;28;20056;-51
2023/07/10 02:25:53;;;;;;;5.22;0.43;;;;;;;13.29;100.00;101434.00;5028589;28;20393;-51
2023/07/10 02:28:19;;;;;;;2.88;0.22;;;;;;;13.29;100.00;101420.69;5033788;28;20033;-58
2023/07/10 02:30:44;;;;;;;4.53;1.00;;;;;;;13.33;100.00;101418.47;5037332;28;20468;-59
2023/07/10 02:33:09;;;;;;;3.60;0.60;;;;;;;13.34;100.00;101413.94;5038273;28;20029;-56
2023/07/10 02:35:35;;;;;;;3.97;1.45;;;;;;;13.28;100.00;101411.03;5034863;28;20061;-54
2023/07/10 02:38:00;;;;;;;5.90;1.00;;;;;;;13.24;100.00;101401.75;5031531;28;20048;-56
2023/07/10 02:40:25;;;;;;;7.35;1.10;;;;;;;13.27;100.00;101413.88;5039023;28;20111;-56
2023/07/10 02:42:50;;;;;;;2.75;0.60;;;;;;;13.29;100.00;101412.69;5036692;28;20139;-57
2023/07/10 02:45:16;;;;;;;3.25;0.52;;;;;;;13.27;100.00;101408.56;5038335;28;21077;-54
2023/07/10 02:47:41;;;;;;;6.50;0.55;;;;;;;13.25;100.00;101416.69;5030002;28;20028;-54
2023/07/10 02:50:09;;;;;;;3.35;0.20;;;;;;;13.24;100.00;101412.41;5031879;28;20348;-52
2023/07/10 02:52:34;;;;;;;8.80;0.73;;;;;;;13.21;100.00;101410.06;5033830;28;20039;-54
2023/07/10 02:54:59;;;;;;;3.70;0.57;;;;;;;13.18;100.00;101410.44;5030504;28;20022;-56
2023/07/10 02:57:24;;;;;;;2.28;1.10;;;;;;;13.18;100.00;101415.78;5034183;28;20064;-56
2023/07/10 02:59:50;;;;;;;5.30;0.50;;;;;;;13.15;100.00;101416.16;5031791;28;20108;-54
2023/07/10 03:02:15;;;;;;;4.00;0.57;;;;;;;13.09;100.00;101428.38;5028063;28;20461;-52
2023/07/10 03:04:40;;;;;;;13.75;1.85;;;;;;;13.09;100.00;101430.22;5036997;28;20657;-52
2023/07/10 03:07:06;;;;;;;4.35;2.65;;;;;;;13.11;100.00;101438.81;5041475;28;20032;-62
2023/07/10 03:09:31;;;;;;;7.85;1.13;;;;;;;13.09;100.00;101422.22;5033251;28;20041;-60
2023/07/10 03:11:56;;;;;;;4.55;0.55;;;;;;;13.01;100.00;101416.97;5027981;28;20100;-61
2023/07/10 03:14:22;;;;;;;6.32;0.75;;;;;;;12.93;100.00;101411.75;5027982;28;20504;-57
2023/07/10 03:16:47;;;;;;;7.22;1.45;;;;;;;12.82;100.00;101419.19;5033732;28;20367;-56
2023/07/10 03:19:12;;;;;;;6.30;0.75;;;;;;;12.80;100.00;101417.72;5030397;28;20036;-58
2023/07/10 03:21:38;;;;;;;4.72;1.08;;;;;;;12.75;100.00;101418.28;5028854;28;20331;-57
2023/07/10 03:24:03;;;;;;;2.70;0.95;;;;;;;12.68;100.00;101414.69;5040388;28;20032;-58
2023/07/10 03:26:29;;;;;;;5.55;0.70;;;;;;;12.66;100.00;101414.84;5032017;28;20500;-58
2023/07/10 03:29:10;;;;;;;3.65;0.55;;;;;;;12.60;100.00;101420.09;5032492;28;20036;-59
2023/07/10 03:31:36;;;;;;;9.60;0.93;;;;;;;12.55;100.00;101425.94;5026979;28;20064;-51
2023/07/10 03:34:01;;;;;;;6.07;0.80;;;;;;;12.53;100.00;101433.28;5031479;28;20056;-54
2023/07/10 03:36:27;;;;;;;0.85;0.22;;;;;;;12.49;100.00;101441.78;5026553;28;20072;-57
2023/07/10 03:38:52;;;;;;;4.95;0.40;;;;;;;12.45;100.00;101446.66;5036263;28;20029;-57
2023/07/10 03:41:18;;;;;;;2.65;0.68;;;;;;;12.60;100.00;101446.69;5033731;28;20071;-57
2023/07/10 03:43:43;;;;;;;3.35;0.32;;;;;;;12.66;100.00;101444.13;5036864;28;20132;-56
2023/07/10 03:46:10;;;;;;;7.25;0.85;;;;;;;12.54;100.00;101452.72;5032464;28;20033;-57
2023/07/10 03:48:36;;;;;;;2.00;0.63;;;;;;;12.50;100.00;101444.28;5033940;28;20037;-57
2023/07/10 03:51:01;;;;;;;4.95;0.45;;;;;;;12.50;100.00;101443.47;5038124;28;20513;-56
2023/07/10 03:53:27;;;;;;;0.93;0.47;;;;;;;12.45;100.00;101444.00;5036586;28;20107;-58
2023/07/10 03:55:54;;;;;;;3.88;1.48;;;;;;;12.42;100.00;101442.53;5034388;28;20490;-53
2023/07/10 03:58:26;;;;;;;1.77;0.20;;;;;;;12.44;100.00;101442.31;5035420;28;20037;-56
2023/07/10 04:00:51;;;;;;;6.07;0.45;;;;;;;12.51;100.00;101453.91;5037780;28;20051;-58
2023/07/10 04:03:21;;;;;;;3.95;0.63;;;;;;;12.60;100.00;101460.00;5032572;28;20363;-58
2023/07/10 04:05:49;;;;;;;3.70;0.40;;;;;;;12.50;100.00;101459.44;5034693;28;21080;-60
2023/07/10 04:08:15;;;;;;;2.40;0.30;;;;;;;12.32;100.00;101457.09;5036394;28;20040;-61
2023/07/10 04:10:40;;;;;;;2.17;0.52;;;;;;;12.30;100.00;101451.94;5034492;28;20037;-61
2023/07/10 04:13:06;;;;;;;0.85;0.20;;;;;;;12.37;100.00;101455.53;5038874;28;20033;-61
2023/07/10 04:15:31;;;;;;;2.95;0.85;;;;;;;12.40;100.00;101460.50;5034314;28;20064;-59
2023/07/10 04:17:56;;;;;;;4.07;0.65;;;;;;;12.42;100.00;101463.81;5034358;28;20641;-58
2023/07/10 04:20:22;;;;;;;4.35;0.38;;;;;;;12.51;100.00;101469.03;5035043;28;20478;-58
2023/07/10 04:22:47;;;;;;;5.05;0.50;;;;;;;12.66;100.00;101475.22;5033359;28;20215;-56
2023/07/10 04:25:14;;;;;;;1.95;1.30;;;;;;;12.83;100.00;101482.06;5039046;28;20139;-57
2023/07/10 04:27:39;;;;;;;8.27;1.23;;;;;;;12.95;100.00;101479.75;5030017;28;20037;-54
2023/07/10 04:30:05;;;;;;;2.05;0.55;;;;;;;13.12;100.00;101488.41;5035944;28;20031;-56
2023/07/10 04:32:31;;;;;;;6.68;1.65;;;;;;;13.24;100.00;101478.97;5031734;28;20098;-56
2023/07/10 04:34:56;;;;;;;8.60;0.60;;;;;;;13.31;100.00;101482.56;5034929;28;20033;-56
2023/07/10 04:37:22;;;;;;;2.38;1.25;;;;;;;13.36;100.00;101475.88;5037313;28;20035;-55
2023/07/10 04:39:47;;;;;;;6.70;1.58;;;;;;;13.34;100.00;101477.88;5032951;28;20060;-59
2023/07/10 04:42:12;;;;;;;13.55;2.13;;;;;;;13.32;100.00;101475.41;5035793;28;20119;-55
2023/07/10 04:44:38;;;;;;;5.88;0.47;;;;;;;13.33;100.00;101470.91;5033465;28;20170;-51
2023/07/10 04:47:03;;;;;;;1.10;0.70;;;;;;;13.37;100.00;101469.50;5038535;28;20032;-56
2023/07/10 04:49:29;;;;;;;5.43;0.52;;;;;;;13.39;100.00;101463.00;5033053;28;20688;-57
2023/07/10 04:51:54;;;;;;;4.40;0.90;;;;;;;13.46;100.00;101463.09;5039501;28;20436;-57
2023/07/10 04:54:19;;;;;;;6.43;1.15;;;;;;;13.49;100.00;101457.38;5039454;28;20036;-52
2023/07/10 04:56:44;;;;;;;11.45;2.17;;;;;;;13.56;100.00;101452.97;5037807;28;20033;-56
2023/07/10 04:59:10;;;;;;;1.67;0.65;;;;;;;13.61;100.00;101458.56;5034292;28;20122;-56
2023/07/10 05:01:36;;;;;;;2.55;1.13;;;;;;;13.68;100.00;101462.13;5035368;28;20041;-57
2023/07/10 05:04:02;;;;;;;2.75;1.00;;;;;;;13.77;100.00;101452.16;5037008;28;20128;-58
2023/07/10 05:06:27;;;;;;;9.45;1.13;;;;;;;13.81;100.00;101463.28;5033992;28;20545;-58
2023/07/10 05:08:55;;;;;;;8.85;0.80;;;;;;;13.86;100.00;101459.06;5040036;28;20164;-55
2023/07/10 05:11:22;;;;;;;5.25;0.82;;;;;;;13.94;100.00;101460.78;5033042;28;20572;-59
2023/07/10 05:13:48;;;;;;;5.43;1.25;;;;;;;14.02;100.00;101463.31;5033208;28;20120;-57
2023/07/10 05:16:14;;;;;;;6.00;1.02;;;;;;;14.09;100.00;101445.50;5033369;28;20116;-57
2023/07/10 05:18:40;;;;;;;7.38;0.85;;;;;;;14.08;100.00;101459.88;5029513;28;20540;-59
2023/07/10 05:21:06;;;;;;;6.70;0.93;;;;;;;14.15;100.00;101465.28;5042904;28;20037;-57
2023/07/10 05:23:32;;;;;;;6.85;1.35;;;;;;;14.17;100.00;101464.09;5034520;28;20025;-56
2023/07/10 05:26:05;;;;;;;6.82;1.05;;;;;;;14.25;100.00;101464.94;5033018;28;20030;-57
2023/07/10 05:28:31;;;;;;;6.22;2.13;;;;;;;14.28;100.00;101472.59;5032829;28;20087;-51
2023/07/10 05:30:58;;;;;;;6.22;1.52;;;;;;;14.34;100.00;101467.28;5041187;28;20029;-58
2023/07/10 05:33:24;;;;;;;4.07;1.25;;;;;;;14.36;100.00;101472.47;5039266;28;20115;-50
2023/07/10 05:35:57;;;;;;;4.53;0.82;;;;;;;14.32;100.00;101468.50;5035320;28;20029;-57
2023/07/10 05:38:24;;;;;;;2.15;1.33;;;;;;;14.37;100.00;101471.41;5036077;28;20056;-60
2023/07/10 05:40:49;;;;;;;8.57;2.45;;;;;;;14.44;100.00;101466.97;5032965;28;20493;-60
2023/07/10 05:43:15;;;;;;;8.23;1.33;;;;;;;14.48;100.00;101468.25;5038528;28;20041;-58
2023/07/10 05:45:41;;;;;;;8.18;0.98;;;;;;;14.55;100.00;101471.00;5035308;28;20037;-57
2023/07/10 05:48:07;;;;;;;4.82;1.30;;;;;;;14.61;100.00;101465.72;5031508;28;20038;-57
2023/07/10 05:50:32;;;;;;;4.85;0.85;;;;;;;14.65;100.00;101466.16;5030657;28;20038;-59
2023/07/10 05:52:58;;;;;;;4.32;0.82;;;;;;;14.53;100.00;101463.19;5028747;28;20028;-45
2023/07/10 05:55:23;;;;;;;7.20;2.22;;;;;;;14.50;100.00;101470.72;5028170;28;20148;-50
2023/07/10 05:57:48;;;;;;;4.72;0.73;;;;;;;14.52;100.00;101477.50;5032394;28;20120;-45
2023/07/10 06:00:14;;;;;;;4.57;1.77;;;;;;;14.57;100.00;101482.31;5026595;28;20090;-52
2023/07/10 06:02:39;;;;;;;4.32;0.85;;;;;;;14.60;100.00;101488.06;5033773;28;20037;-56
2023/07/10 06:05:05;;;;;;;5.55;1.35;;;;;;;14.63;100.00;101484.19;5047434;28;20540;-51
2023/07/10 06:07:31;;;;;;;9.65;1.85;;;;;;;14.70;100.00;101484.25;5029958;28;20051;-51
2023/07/10 06:09:56;;;;;;;7.28;1.15;;;;;;;14.76;100.00;101470.94;5031139;28;20033;-50
2023/07/10 06:12:21;;;;;;;4.65;0.60;;;;;;;14.88;100.00;101473.09;5035733;28;20119;-50
2023/07/10 06:14:47;;;;;;;3.58;0.70;;;;;;;14.95;100.00;101464.09;5031552;28;20029;-53
2023/07/10 06:17:12;;;;;;;3.83;0.82;;;;;;;15.02;100.00;101467.66;5043229;28;20389;-49
2023/07/10 06:19:37;;;;;;;9.30;1.48;;;;;;;15.09;100.00;101458.84;5034291;28;20030;-50
2023/07/10 06:22:08;;;;;;;4.00;0.63;;;;;;;15.11;100.00;101454.13;5039153;28;20460;-50
2023/07/10 06:24:34;;;;;;;4.97;1.95;;;;;;;15.17;100.00;101464.00;5038569;28;20039;-52
2023/07/10 06:26:59;;;;;;;1.95;0.30;;;;;;;15.31;100.00;101455.06;5029235;28;20352;-49
2023/07/10 06:29:25;;;;;;;4.55;1.40;;;;;;;15.43;100.00;101452.63;5029847;28;20104;-58
2023/07/10 06:31:50;;;;;;;6.82;1.00;;;;;;;15.47;100.00;101459.22;5035615;28;20032;-58
2023/07/10 06:34:15;;;;;;;2.63;1.02;;;;;;;15.56;100.00;101455.34;5034592;28;20033;-63
2023/07/10 06:36:40;;;;;;;4.07;1.30;;;;;;;15.69;100.00;101449.25;5035087;28;20041;-58
2023/07/10 06:39:06;;;;;;;2.33;0.63;;;;;;;15.75;100.00;101440.44;5032791;28;20029;-48
2023/07/10 06:41:31;;;;;;;6.50;0.75;;;;;;;15.77;100.00;101422.31;5039326;28;20056;-60
2023/07/10 06:43:56;;;;;;;3.25;0.88;;;;;;;15.84;100.00;101428.53;5032479;28;20564;-54
2023/07/10 06:46:23;;;;;;;2.72;0.55;;;;;;;15.96;100.00;101412.72;5031399;28;20037;-51
2023/07/10 06:48:49;;;;;;;5.70;1.17;;;;;;;16.19;100.00;101415.00;5031295;28;20033;-55
2023/07/10 06:51:14;;;;;;;4.57;0.60;;;;;;;16.34;100.00;101398.72;5031524;28;20559;-49
2023/07/10 06:53:39;;;;;;;6.22;0.40;;;;;;;16.20;100.00;101384.53;5039579;28;20123;-55
2023/07/10 06:56:05;;;;;;;2.40;0.47;;;;;;;16.05;100.00;101373.19;5031749;28;20372;-48
2023/07/10 06:58:32;;;;;;;2.28;0.30;;;;;;;15.85;100.00;101376.69;5042790;28;20056;-58
2023/07/10 07:00:59;;;;;;;3.70;0.80;;;;;;;15.92;100.00;101382.03;5038145;28;20524;-50
2023/07/10 07:03:24;;;;;;;4.18;0.40;;;;;;;16.19;100.00;101390.91;5034402;28;20064;-62
2023/07/10 07:05:50;;;;;;;7.63;1.73;;;;;;;16.24;100.00;101388.44;5032318;28;20076;-66
2023/07/10 07:08:17;;;;;;;3.92;0.52;;;;;;;16.31;100.00;101389.25;5029806;28;20434;-55
2023/07/10 07:10:43;;;;;;;4.60;1.67;;;;;;;16.61;100.00;101380.78;5033748;28;20482;-54
2023/07/10 07:13:09;;;;;;;2.92;0.73;;;;;;;16.73;100.00;101371.06;5033158;28;20040;-61
2023/07/10 07:15:35;;;;;;;2.05;1.00;;;;;;;16.95;100.00;101368.16;5029378;28;20025;-51
2023/07/10 07:18:01;;;;;;;2.63;0.13;;;;;;;17.19;100.00;101364.78;5035584;28;20494;-56
2023/07/10 07:20:26;;;;;;;2.30;0.52;;;;;;;17.21;100.00;101354.63;5025962;28;20489;-59
2023/07/10 07:22:51;;;;;;;3.65;0.20;;;;;;;17.20;100.00;101342.28;5033970;28;20021;-56
2023/07/10 07:25:18;;;;;;;3.88;1.75;;;;;;;17.35;100.00;101335.84;5030615;28;20537;-61
2023/07/10 07:27:43;;;;;;;5.60;0.38;;;;;;;17.49;100.00;101334.69;5031572;28;20037;-61
2023/07/10 07:30:09;;;;;;;5.95;0.80;;;;;;;17.56;100.00;101329.31;5033137;28;20037;-53
2023/07/10 07:32:35;;;;;;;5.25;0.55;;;;;;;17.75;100.00;101322.97;5031745;28;20037;-60
2023/07/10 07:35:00;;;;;;;3.90;0.60;;;;;;;17.84;100.00;101329.75;5030365;28;20526;-58
2023/07/10 07:37:25;;;;;;;3.10;0.40;;;;;;;17.82;100.00;101334.50;5029370;28;20481;-48
2023/07/10 07:39:51;;;;;;;5.40;0.55;;;;;;;17.71;100.00;101318.25;5037244;28;20032;-50
2023/07/10 07:42:16;;;;;;;4.55;0.82;;;;;;;17.76;100.00;101335.34;5036854;28;20132;-58
2023/07/10 07:44:41;;;;;;;8.63;1.55;;;;;;;17.94;100.00;101321.22;5035311;28;20051;-49
2023/07/10 07:47:07;;;;;;;6.43;1.00;;;;;;;18.17;100.00;101319.75;5030472;28;20513;-49
2023/07/10 07:49:32;;;;;;;4.65;0.10;;;;;;;18.24;100.00;101321.34;5027898;28;20485;-52
2023/07/10 07:51:58;;;;;;;3.47;0.55;;;;;;;18.18;100.00;101329.47;5028609;28;20029;-53
2023/07/10 07:54:23;;;;;;;2.92;0.17;;;;;;;18.25;100.00;101316.78;5021608;28;20426;-53
2023/07/10 07:56:48;;;;;;;2.15;0.47;;;;;;;18.43;100.00;101314.13;5029121;28;20466;-60
2023/07/10 07:59:15;;;;;;;9.00;1.27;;;;;;;18.67;100.00;101323.16;5033212;28;20547;-62
2023/07/10 08:01:41;;;;;;;14.25;0.98;;;;;;;18.56;100.00;101323.91;5036584;28;20127;-61
2023/07/10 08:04:07;;;;;;;4.82;0.30;;;;;;;18.47;100.00;101327.94;5031400;28;20049;-55
2023/07/10 08:06:33;;;;;;;5.47;0.40;;;;;;;18.26;100.00;101337.22;5032533;28;20148;-48
2023/07/10 08:09:00;;;;;;;2.72;1.10;;;;;;;18.13;100.00;101327.44;5033694;28;20044;-50
2023/07/10 08:11:25;;;;;;;2.63;0.80;;;;;;;18.13;100.00;101329.31;5030944;28;20113;-51
2023/07/10 08:13:51;;;;;;;1.67;0.75;;;;;;;18.09;100.00;101334.28;5031279;28;20040;-54
2023/07/10 08:16:19;;;;;;;2.95;0.57;;;;;;;18.33;100.00;101326.41;5029768;28;20046;-50
2023/07/10 08:18:45;;;;;;;2.72;0.40;;;;;;;18.40;100.00;101333.34;5030049;28;20040;-56
2023/07/10 08:21:12;;;;;;;8.32;0.30;;;;;;;18.33;100.00;101340.69;5029637;28;20559;-64
2023/07/10 08:23:38;;;;;;;5.57;1.15;;;;;;;18.29;100.00;101337.59;5030133;28;20033;-49
2023/07/10 08:26:04;;;;;;;3.92;0.10;;;;;;;18.31;100.00;101316.72;5030576;28;20375;-55
2023/07/10 08:28:30;;;;;;;4.55;0.73;;;;;;;18.28;100.00;101324.41;5035167;28;20114;-49
2023/07/10 08:30:55;;;;;;;3.28;0.43;;;;;;;18.33;100.00;101326.41;5034672;28;20112;-60
2023/07/10 08:33:21;;;;;;;2.80;0.45;;;;;;;18.48;100.00;101316.97;5033685;28;20063;-56
2023/07/10 08:35:57;;;;;;;3.80;0.47;;;;;;;18.66;100.00;101318.00;5034661;28;20037;-63
2023/07/10 08:38:22;;;;;;;6.10;0.55;;;;;;;18.82;100.00;101306.69;5031701;28;20029;-51
2023/07/10 08:40:51;;;;;;;5.90;0.70;;;;;;;19.01;100.00;101312.03;5033820;28;20040;-49
2023/07/10 08:43:23;;;;;;;3.58;0.85;;;;;;;19.09;100.00;101300.97;5033363;28;20029;-59
2023/07/10 08:45:50;;;;;;;9.27;0.35;;;;;;;19.52;100.00;101279.25;5033296;28;20029;-63
2023/07/10 08:48:39;;;;;;;4.57;0.82;;;;;;;19.70;100.00;101275.69;5034975;28;20576;-47
2023/07/10 08:51:15;;;;;;;1.17;0.30;;;;;;;19.85;100.00;101266.31;5036191;28;20044;-56
2023/07/10 08:53:44;;;;;;;1.08;0.20;;;;;;;20.20;100.00;101248.28;5033595;28;20029;-47
2023/07/10 08:56:33;;;;;;;1.08;0.22;;;;;;;20.53;100.00;101252.22;5035881;28;20117;-56
2023/07/10 08:59:09;;;;;;;2.72;0.28;;;;;;;20.73;100.00;101254.53;5034053;28;20421;-59
2023/07/10 09:01:39;;;;;;;3.78;1.23;;;;;;;20.92;100.00;101261.34;5035487;28;20041;-62
2023/07/10 09:04:11;;;;;;;6.97;0.45;;;;;;;20.73;100.00;101253.69;5033675;28;20126;-52
2023/07/10 09:06:36;;;;;;;2.05;0.22;;;;;;;20.76;100.00;101261.31;5034574;28;20041;-52
2023/07/10 09:09:12;;;;;;;3.37;1.00;;;;;;;20.79;100.00;101266.22;5036232;28;20395;-64
2023/07/10 09:11:38;;;;;;;5.32;1.35;;;;;;;20.83;100.00;101275.44;5031746;28;20369;-56
2023/07/10 09:14:23;;;;;;;2.70;0.40;;;;;;;20.78;100.00;101261.88;5030801;28;20111;-50
2023/07/10 09:16:51;;;;;;;2.05;0.13;;;;;;;20.77;100.00;101255.66;5030047;28;20029;-56
2023/07/10 09:19:19;;;;;;;5.30;0.47;;;;;;;20.68;100.00;101246.34;5031473;28;20032;-59
2023/07/10 09:21:44;;;;;;;5.18;0.35;;;;;;;20.64;100.00;101248.69;5029928;28;20094;-59
2023/07/10 09:24:28;;;;;;;1.67;0.28;;;;;;;20.67;100.00;101240.13;5031597;28;20060;-56
2023/07/10 09:26:53;;;;;;;1.95;0.32;;;;;;;20.92;100.00;101233.59;5028961;28;20037;-60
2023/07/10 09:29:33;;;;;;;3.55;0.35;;;;;;;21.20;100.00;101219.25;5032646;28;20039;-49
2023/07/10 09:32:04;;;;;;;1.98;0.45;;;;;;;21.35;100.00;101222.22;5032005;28;20536;-62
2023/07/10 09:34:31;;;;;;;;;;;;;;;21.18;100.00;101212.47;5028786;28;20521;-47
2023/07/10 09:36:58;;;;;;;3.33;0.30;;;;;;;21.24;100.00;101224.97;5030157;28;20318;-48
2023/07/10 09:39:28;;;;;;;2.20;0.10;;;;;;;21.34;100.00;101217.03;5031386;28;20092;-57
2023/07/10 09:41:57;;;;;;;3.00;0.32;;;;;;;21.47;100.00;101205.97;5028640;28;20033;-46
2023/07/10 09:44:23;;;;;;;1.50;0.25;;;;;;;21.67;100.00;101201.94;5026387;28;20029;-58
2023/07/10 09:46:49;;;;;;;1.58;0.38;;;;;;;22.11;100.00;101189.31;5026397;28;20040;-59
2023/07/10 09:49:21;;;;;;;2.50;0.70;;;;;;;22.63;100.00;101188.88;5031777;28;20040;-52
2023/07/10 09:52:03;;;;;;;2.85;0.35;;;;;;;22.96;100.00;101184.34;5024891;28;20033;-57
2023/07/10 09:54:36;;;;;;;2.72;0.20;;;;;;;22.98;100.00;101200.34;5022818;28;20107;-57
2023/07/10 09:57:09;;;;;;;2.90;0.65;;;;;;;22.84;100.00;101191.78;5026128;28;20030;-54
2023/07/10 09:59:35;;;;;;;1.48;0.70;;;;;;;22.56;100.00;101192.84;5024258;28;20903;-59
2023/07/10 10:02:22;;;;;;;2.95;0.10;;;;;;;22.70;100.00;101194.09;5031497;28;20079;-50
2023/07/10 10:05:08;;;;;;;3.75;0.20;;;;;;;22.56;100.00;101180.16;5022690;28;20052;-53
2023/07/10 10:07:45;;;;;;;2.35;0.13;;;;;;;22.74;100.00;101184.38;5024367;28;20941;-53
2023/07/10 10:10:21;;;;;;;2.20;0.50;;;;;;;22.57;100.00;101181.78;5028877;28;20041;-57
2023/07/10 10:12:56;;;;;;;2.80;0.20;;;;;;;22.67;100.00;101188.38;5030659;28;20033;-50
2023/07/10 10:15:43;;;;;;;7.43;0.28;;;;;;;22.77;100.00;101192.00;5033560;28;20032;-60
2023/07/10 10:18:29;;;;;;;1.88;0.10;;;;;;;22.69;100.00;101197.88;5028133;28;20045;-50
2023/07/10 10:20:55;;;;;;;2.67;0.90;;;;;;;22.34;100.00;101190.19;5036156;28;20176;-47
2023/07/10 10:23:33;;;;;;;3.38;0.15;;;;;;;22.44;100.00;101187.59;5035732;28;20029;-48
2023/07/10 10:26:14;;;;;;;1.02;0.00;;;;;;;22.67;100.00;101196.50;5029929;28;20033;-53
2023/07/10 10:28:52;;;;;;;2.33;0.80;;;;;;;22.35;100.00;101199.91;5047133;28;20549;-48
2023/07/10 10:31:26;;;;;;;5.30;1.55;;;;;;;22.06;100.00;101183.03;5034132;28;20060;-52
2023/07/10 10:34:02;;;;;;;5.68;0.93;;;;;;;22.40;100.00;101178.34;5035791;28;20456;-63
2023/07/10 10:36:54;;;;;;;8.68;1.23;;;;;;;22.14;100.00;101185.31;5029891;28;20053;-45
2023/07/10 10:39:27;;;;;;;2.72;0.30;;;;;;;22.41;100.00;101180.00;5035714;28;20159;-54
2023/07/10 10:42:08;;;;;;;2.53;0.55;;;;;;;22.48;100.00;101179.78;5035144;28;20061;-57
2023/07/10 10:44:42;;;;;;;3.10;1.10;;;;;;;22.97;100.00;101171.66;5033646;28;20469;-51
2023/07/10 10:47:35;;;;;;;3.25;0.98;;;;;;;23.80;100.00;101169.31;5039720;28;20049;-50
2023/07/10 10:50:06;;;;;;;4.15;0.25;;;;;;;24.21;100.00;101152.41;5029835;28;20033;-56
2023/07/10 10:52:47;;;;;;;3.20;0.10;;;;;;;24.35;100.00;101153.56;5024955;28;20033;-64
2023/07/10 10:55:54;;;;;;;2.08;0.13;;;;;;;23.62;100.00;101151.59;5026814;28;20047;-60
2023/07/10 10:58:27;;;;;;;1.75;0.30;;;;;;;23.32;100.00;101148.69;5023632;28;20052;-51
2023/07/10 11:01:15;;;;;;;3.28;0.50;;;;;;;23.74;100.00;101159.53;5035376;28;20490;-48
2023/07/10 11:03:47;;;;;;;4.18;0.28;;;;;;;23.84;100.00;101147.94;5035396;28;20036;-63
2023/07/10 11:06:38;;;;;;;2.47;0.10;;;;;;;24.06;100.00;101151.28;5032549;28;20146;-56
2023/07/10 11:09:11;;;;;;;0.28;0.00;;;;;;;24.24;100.00;101154.59;5028784;28;20068;-63
2023/07/10 11:11:39;;;;;;;3.90;0.22;;;;;;;24.13;100.00;101142.91;5036349;28;20032;-55
2023/07/10 11:14:06;;;;;;;8.07;0.57;;;;;;;24.02;100.00;101144.75;5033292;28;20026;-60
2023/07/10 11:16:33;;;;;;;3.60;0.68;;;;;;;24.52;100.00;101148.72;5034092;28;20102;-51
2023/07/10 11:19:00;;;;;;;1.80;0.20;;;;;;;24.95;100.00;101135.75;5031556;28;20064;-58
2023/07/10 11:21:25;;;;;;;2.28;0.10;;;;;;;25.24;100.00;101125.19;5036091;28;20025;-51
2023/07/10 11:23:51;;;;;;;5.50;1.00;;;;;;;25.33;100.00;101111.91;5033666;28;20457;-60